createdAt,value
2017-04-08T00:00:40.551Z,1015.26
2017-04-08T00:01:21.114Z,1015.22
2017-04-08T00:02:01.742Z,1015.27
2017-04-08T00:02:42.337Z,1015.25
2017-04-08T00:03:22.936Z,1015.2
2017-04-08T00:04:03.539Z,1015.25
2017-04-08T00:04:44.198Z,1015.29
2017-04-08T00:05:24.754Z,1015.27
2017-04-08T00:06:05.353Z,1015.26
2017-04-08T00:06:45.971Z,1015.29
2017-04-08T00:07:26.568Z,1015.3
2017-04-08T00:08:07.150Z,1015.24
2017-04-08T00:08:47.751Z,1015.29
2017-04-08T00:09:28.417Z,1015.27
2017-04-08T00:10:09.006Z,1015.32
2017-04-08T00:10:49.576Z,1015.31
2017-04-08T00:11:30.183Z,1015.32
2017-04-08T00:12:10.801Z,1015.31
2017-04-08T00:12:51.382Z,1015.38
2017-04-08T00:13:31.967Z,1015.38
2017-04-08T00:14:12.567Z,1015.4
2017-04-08T00:14:53.158Z,1015.35
2017-04-08T00:15:33.755Z,1015.32
2017-04-08T00:16:14.386Z,1015.32
2017-04-08T00:16:54.984Z,1015.3
2017-04-08T00:17:35.604Z,1015.31
2017-04-08T00:18:16.172Z,1015.36
2017-04-08T00:18:56.750Z,1015.38
2017-04-08T00:19:37.333Z,1015.35
2017-04-08T00:20:17.971Z,1015.38
2017-04-08T00:20:58.602Z,1015.35
2017-04-08T00:21:39.175Z,1015.35
2017-04-08T00:22:19.778Z,1015.35
2017-04-08T00:23:00.351Z,1015.35
2017-04-08T00:23:40.934Z,1015.34
2017-04-08T00:24:21.539Z,1015.35
2017-04-08T00:25:02.147Z,1015.34
2017-04-08T00:25:42.760Z,1015.37
2017-04-08T00:26:23.341Z,1015.39
2017-04-08T00:27:03.946Z,1015.4
2017-04-08T00:27:44.517Z,1015.41
2017-04-08T00:28:25.122Z,1015.41
2017-04-08T00:29:05.706Z,1015.43
2017-04-08T00:29:46.346Z,1015.42
2017-04-08T00:30:26.978Z,1015.43
2017-04-08T00:31:07.558Z,1015.43
2017-04-08T00:31:48.192Z,1015.48
2017-04-08T00:32:28.808Z,1015.46
2017-04-08T00:33:09.474Z,1015.44
2017-04-08T00:33:50.068Z,1015.48
2017-04-08T00:34:30.663Z,1015.46
2017-04-08T00:35:11.244Z,1015.45
2017-04-08T00:35:51.866Z,1015.49
2017-04-08T00:36:32.458Z,1015.43
2017-04-08T00:37:13.053Z,1015.44
2017-04-08T00:37:53.633Z,1015.48
2017-04-08T00:38:34.218Z,1015.49
2017-04-08T00:39:14.797Z,1015.47
2017-04-08T00:39:55.370Z,1015.49
2017-04-08T00:40:35.939Z,1015.52
2017-04-08T00:41:16.529Z,1015.5
2017-04-08T00:41:57.104Z,1015.45
2017-04-08T00:42:37.682Z,1015.48
2017-04-08T00:43:18.249Z,1015.44
2017-04-08T00:43:58.840Z,1015.49
2017-04-08T00:44:39.400Z,1015.48
2017-04-08T00:45:20.000Z,1015.44
2017-04-08T00:46:00.593Z,1015.45
2017-04-08T00:46:41.170Z,1015.44
2017-04-08T00:47:21.768Z,1015.46
2017-04-08T00:48:02.349Z,1015.47
2017-04-08T00:48:42.973Z,1015.47
2017-04-08T00:49:23.522Z,1015.46
2017-04-08T00:50:04.104Z,1015.51
2017-04-08T00:50:44.670Z,1015.46
2017-04-08T00:51:25.252Z,1015.46
2017-04-08T00:52:05.865Z,1015.5
2017-04-08T00:52:46.455Z,1015.48
2017-04-08T00:53:27.046Z,1015.47
2017-04-08T00:54:07.623Z,1015.47
2017-04-08T00:54:48.213Z,1015.49
2017-04-08T00:55:28.800Z,1015.5
2017-04-08T00:56:09.388Z,1015.47
2017-04-08T00:56:49.965Z,1015.5
2017-04-08T00:57:30.562Z,1015.5
2017-04-08T00:58:11.165Z,1015.47
2017-04-08T00:58:51.723Z,1015.46
2017-04-08T00:59:32.428Z,1015.5
2017-04-08T01:00:13.052Z,1015.44
2017-04-08T01:00:53.631Z,1015.45
2017-04-08T01:01:34.195Z,1015.43
2017-04-08T01:02:14.771Z,1015.4
2017-04-08T01:02:55.363Z,1015.44
2017-04-08T01:03:35.934Z,1015.46
2017-04-08T01:04:16.531Z,1015.43
2017-04-08T01:04:57.125Z,1015.41
2017-04-08T01:05:37.741Z,1015.49
2017-04-08T01:06:18.328Z,1015.44
2017-04-08T01:06:58.921Z,1015.44
2017-04-08T01:07:39.528Z,1015.45
2017-04-08T01:08:20.098Z,1015.44
2017-04-08T01:09:00.685Z,1015.46
2017-04-08T01:09:41.282Z,1015.42
2017-04-08T01:10:21.860Z,1015.46
2017-04-08T01:11:02.435Z,1015.47
2017-04-08T01:11:43.076Z,1015.5
2017-04-08T01:12:23.726Z,1015.48
2017-04-08T01:13:04.313Z,1015.48
2017-04-08T01:13:44.896Z,1015.49
2017-04-08T01:14:25.490Z,1015.46
2017-04-08T01:15:06.071Z,1015.5
2017-04-08T01:15:46.707Z,1015.43
2017-04-08T01:16:27.273Z,1015.43
2017-04-08T01:17:07.887Z,1015.47
2017-04-08T01:17:48.468Z,1015.49
2017-04-08T01:18:29.082Z,1015.47
2017-04-08T01:19:09.678Z,1015.48
2017-04-08T01:19:50.264Z,1015.47
2017-04-08T01:20:30.924Z,1015.43
2017-04-08T01:21:11.541Z,1015.41
2017-04-08T01:21:52.125Z,1015.41
2017-04-08T01:22:32.704Z,1015.44
2017-04-08T01:23:13.283Z,1015.44
2017-04-08T01:23:53.861Z,1015.48
2017-04-08T01:24:34.452Z,1015.45
2017-04-08T01:25:15.047Z,1015.47
2017-04-08T01:25:55.611Z,1015.5
2017-04-08T01:26:36.191Z,1015.47
2017-04-08T01:27:16.777Z,1015.41
2017-04-08T01:27:57.369Z,1015.52
2017-04-08T01:28:37.959Z,1015.5
2017-04-08T01:29:18.546Z,1015.43
2017-04-08T01:29:59.150Z,1015.44
2017-04-08T01:30:39.722Z,1015.43
2017-04-08T01:31:20.309Z,1015.42
2017-04-08T01:32:00.895Z,1015.43
2017-04-08T01:32:41.469Z,1015.47
2017-04-08T01:33:22.060Z,1015.44
2017-04-08T01:34:02.657Z,1015.46
2017-04-08T01:34:43.264Z,1015.45
2017-04-08T01:35:23.930Z,1015.45
2017-04-08T01:36:04.526Z,1015.49
2017-04-08T01:36:45.137Z,1015.48
2017-04-08T01:37:25.721Z,1015.53
2017-04-08T01:38:06.295Z,1015.52
2017-04-08T01:38:46.909Z,1015.46
2017-04-08T01:39:27.483Z,1015.5
2017-04-08T01:40:08.061Z,1015.52
2017-04-08T01:40:48.640Z,1015.49
2017-04-08T01:41:29.222Z,1015.54
2017-04-08T01:42:09.855Z,1015.54
2017-04-08T01:42:50.444Z,1015.5
2017-04-08T01:43:31.050Z,1015.53
2017-04-08T01:44:11.618Z,1015.51
2017-04-08T01:44:52.199Z,1015.53
2017-04-08T01:45:32.809Z,1015.54
2017-04-08T01:46:13.394Z,1015.53
2017-04-08T01:46:53.985Z,1015.56
2017-04-08T01:47:34.599Z,1015.51
2017-04-08T01:48:15.157Z,1015.53
2017-04-08T01:48:55.774Z,1015.57
2017-04-08T01:49:36.343Z,1015.5
2017-04-08T01:50:16.912Z,1015.5
2017-04-08T01:50:57.522Z,1015.52
2017-04-08T01:51:38.173Z,1015.53
2017-04-08T01:52:18.709Z,1015.57
2017-04-08T01:52:59.306Z,1015.55
2017-04-08T01:53:39.934Z,1015.58
2017-04-08T01:54:20.601Z,1015.57
2017-04-08T01:55:01.214Z,1015.54
2017-04-08T01:55:41.812Z,1015.58
2017-04-08T01:56:22.383Z,1015.6
2017-04-08T01:57:02.982Z,1015.53
2017-04-08T01:57:43.601Z,1015.64
2017-04-08T01:58:24.175Z,1015.59
2017-04-08T01:59:04.819Z,1015.58
2017-04-08T01:59:45.477Z,1015.62
2017-04-08T02:00:26.079Z,1015.64
2017-04-08T02:01:06.744Z,1015.64
2017-04-08T02:01:47.354Z,1015.66
2017-04-08T02:02:27.980Z,1015.66
2017-04-08T02:03:08.561Z,1015.66
2017-04-08T02:03:49.159Z,1015.63
2017-04-08T02:04:29.750Z,1015.63
2017-04-08T02:05:10.398Z,1015.66
2017-04-08T02:05:50.968Z,1015.62
2017-04-08T02:06:31.649Z,1015.65
2017-04-08T02:07:12.220Z,1015.69
2017-04-08T02:07:52.806Z,1015.62
2017-04-08T02:08:33.390Z,1015.64
2017-04-08T02:09:13.968Z,1015.69
2017-04-08T02:09:54.566Z,1015.62
2017-04-08T02:10:35.137Z,1015.67
2017-04-08T02:11:15.727Z,1015.7
2017-04-08T02:11:56.363Z,1015.72
2017-04-08T02:12:36.931Z,1015.71
2017-04-08T02:13:17.502Z,1015.74
2017-04-08T02:13:58.138Z,1015.7
2017-04-08T02:14:38.724Z,1015.73
2017-04-08T02:15:19.289Z,1015.7
2017-04-08T02:15:59.896Z,1015.73
2017-04-08T02:16:40.454Z,1015.76
2017-04-08T02:17:21.034Z,1015.72
2017-04-08T02:18:01.643Z,1015.71
2017-04-08T02:18:42.250Z,1015.69
2017-04-08T02:19:22.816Z,1015.69
2017-04-08T02:20:03.396Z,1015.68
2017-04-08T02:20:43.976Z,1015.74
2017-04-08T02:21:24.558Z,1015.76
2017-04-08T02:22:05.128Z,1015.75
2017-04-08T02:22:45.685Z,1015.76
2017-04-08T02:23:26.253Z,1015.79
2017-04-08T02:24:06.847Z,1015.77
2017-04-08T02:24:47.421Z,1015.76
2017-04-08T02:25:28.007Z,1015.75
2017-04-08T02:26:08.595Z,1015.75
2017-04-08T02:26:49.166Z,1015.78
2017-04-08T02:27:29.730Z,1015.77
2017-04-08T02:28:10.310Z,1015.73
2017-04-08T02:28:50.892Z,1015.74
2017-04-08T02:29:31.506Z,1015.75
2017-04-08T02:30:12.085Z,1015.77
2017-04-08T02:30:52.700Z,1015.74
2017-04-08T02:31:33.290Z,1015.81
2017-04-08T02:32:13.930Z,1015.77
2017-04-08T02:32:54.616Z,1015.77
2017-04-08T02:33:35.178Z,1015.79
2017-04-08T02:34:15.748Z,1015.83
2017-04-08T02:34:56.329Z,1015.78
2017-04-08T02:35:36.929Z,1015.8
2017-04-08T02:36:17.546Z,1015.79
2017-04-08T02:36:58.141Z,1015.79
2017-04-08T02:37:38.722Z,1015.8
2017-04-08T02:38:19.332Z,1015.81
2017-04-08T02:38:59.949Z,1015.8
2017-04-08T02:39:40.568Z,1015.85
2017-04-08T02:40:21.186Z,1015.78
2017-04-08T02:41:01.754Z,1015.81
2017-04-08T02:41:42.340Z,1015.83
2017-04-08T02:42:22.920Z,1015.79
2017-04-08T02:43:03.498Z,1015.8
2017-04-08T02:43:44.101Z,1015.79
2017-04-08T02:44:24.673Z,1015.79
2017-04-08T02:45:05.237Z,1015.82
2017-04-08T02:45:45.908Z,1015.82
2017-04-08T02:46:26.500Z,1015.79
2017-04-08T02:47:07.173Z,1015.87
2017-04-08T02:47:47.743Z,1015.85
2017-04-08T02:48:28.382Z,1015.93
2017-04-08T02:49:08.961Z,1015.86
2017-04-08T02:49:49.592Z,1015.88
2017-04-08T02:50:30.183Z,1015.9
2017-04-08T02:51:10.763Z,1015.86
2017-04-08T02:51:51.335Z,1015.84
2017-04-08T02:52:31.919Z,1015.83
2017-04-08T02:53:12.511Z,1015.84
2017-04-08T02:53:53.126Z,1015.88
2017-04-08T02:54:33.732Z,1015.84
2017-04-08T02:55:14.325Z,1015.89
2017-04-08T02:55:54.914Z,1015.9
2017-04-08T02:56:35.483Z,1015.85
2017-04-08T02:57:16.061Z,1015.87
2017-04-08T02:57:56.660Z,1015.86
